Time;durP1;ratioP1;P1;durP2;ratioP2;P2;SDS_P1;SDS_P2;PMS_P1;PMS_P2;Temp;Humidity;BMP_temperature;BMP_pressure;BME280_temperature;BME280_humidity;BME280_pressure;Samples;Min_cycle;Max_cycle;Signal;HPM_P1;HPM_P2
2022/12/30 00:01:21;;;;;;;19.08;4.10;;;;;;;6.52;90.97;100422.81;4971382;29;20052;-79
2022/12/30 00:03:48;;;;;;;18.90;5.22;;;;;;;6.50;91.07;100419.53;4973166;29;20058;-80
2022/12/30 00:06:17;;;;;;;18.33;4.13;;;;;;;6.55;90.83;100428.56;4970316;28;20059;-79
2022/12/30 00:08:47;;;;;;;16.55;4.53;;;;;;;6.50;90.71;100427.31;4971993;29;20050;-80
2022/12/30 00:11:15;;;;;;;17.30;4.80;;;;;;;6.44;91.17;100433.06;4971702;29;20062;-79
2022/12/30 00:33:31;;;;;;;17.40;3.92;;;;;;;6.11;92.31;100426.41;4967765;29;20050;-82
2022/12/30 00:35:58;;;;;;;15.77;4.85;;;;;;;6.21;92.68;100448.84;4965898;29;20142;-80
2022/12/30 00:38:25;;;;;;;17.00;4.50;;;;;;;6.18;92.33;100449.13;4965268;28;20192;-81
2022/12/30 00:43:37;;;;;;;21.67;3.78;;;;;;;6.08;92.34;100440.50;4968332;29;20062;-81
2022/12/30 00:46:04;;;;;;;19.10;4.53;;;;;;;6.04;92.38;100452.09;4970525;29;20078;-82
2022/12/30 00:56:45;;;;;;;16.95;4.40;;;;;;;6.06;93.37;100463.19;4947205;29;20062;-81
2022/12/30 00:59:13;;;;;;;15.48;4.22;;;;;;;6.11;92.60;100463.59;4946941;29;20083;-80
2022/12/30 01:01:39;;;;;;;13.15;4.03;;;;;;;6.01;92.60;100459.31;4960387;29;20043;-81
2022/12/30 01:04:06;;;;;;;16.10;4.32;;;;;;;5.99;92.84;100464.66;4962930;29;20111;-81
2022/12/30 01:06:33;;;;;;;13.45;4.28;;;;;;;6.02;92.69;100460.97;4962624;28;20111;-79
2022/12/30 01:08:59;;;;;;;22.55;4.10;;;;;;;5.89;93.10;100463.78;4961844;29;20074;-80
2022/12/30 01:11:26;;;;;;;13.15;3.70;;;;;;;5.97;93.43;100464.78;4961937;29;20127;-79
2022/12/30 01:13:54;;;;;;;18.80;4.10;;;;;;;5.91;92.91;100461.88;4961121;29;20109;-79
2022/12/30 01:16:20;;;;;;;11.52;3.60;;;;;;;5.96;93.44;100462.31;4953655;29;20111;-80
2022/12/30 01:18:47;;;;;;;16.05;4.40;;;;;;;5.96;93.36;100467.50;4961314;29;20067;-79
2022/12/30 01:21:14;;;;;;;14.32;4.20;;;;;;;5.88;93.27;100467.28;4961461;29;20078;-79
2022/12/30 01:23:40;;;;;;;15.68;3.70;;;;;;;5.85;93.26;100473.56;4961142;29;20091;-79
2022/12/30 01:26:07;;;;;;;15.23;3.60;;;;;;;5.71;93.80;100475.66;4961940;29;20051;-80
2022/12/30 01:28:36;;;;;;;16.33;4.35;;;;;;;5.61;93.86;100484.25;4963369;28;20505;-79
2022/12/30 01:31:07;;;;;;;12.75;4.30;;;;;;;5.58;94.31;100484.50;4962688;29;20082;-79
2022/12/30 01:33:34;;;;;;;19.42;4.20;;;;;;;5.57;94.43;100484.63;4965058;29;20050;-79
2022/12/30 01:36:01;;;;;;;17.33;3.90;;;;;;;5.51;94.67;100482.53;4964274;29;20102;-79
2022/12/30 01:38:29;;;;;;;14.43;4.03;;;;;;;5.54;95.01;100485.72;4991245;23;20074;-80
2022/12/30 01:40:55;;;;;;;15.02;3.97;;;;;;;5.41;94.95;100482.47;4983928;28;20050;-80
2022/12/30 01:43:40;;;;;;;13.20;4.35;;;;;;;5.46;94.93;100490.72;4985479;28;20047;-80
2022/12/30 01:46:09;;;;;;;12.32;4.57;;;;;;;5.38;95.48;100477.53;4980859;28;20333;-80
2022/12/30 01:48:36;;;;;;;17.58;4.32;;;;;;;5.36;95.43;100495.00;4983705;28;20066;-80
2022/12/30 01:51:07;;;;;;;15.25;4.25;;;;;;;5.36;95.75;100495.00;4985633;28;20074;-80
2022/12/30 01:53:36;;;;;;;19.58;4.05;;;;;;;5.36;96.01;100495.00;4974454;28;20046;-80
2022/12/30 01:56:07;;;;;;;12.63;4.07;;;;;;;5.24;95.66;100501.19;4982914;28;20061;-80
2022/12/30 01:58:40;;;;;;;17.75;3.95;;;;;;;5.14;95.39;100510.69;4984644;28;20067;-81
2022/12/30 02:01:09;;;;;;;19.02;3.97;;;;;;;4.90;95.80;100509.09;4982103;28;20270;-80
2022/12/30 02:03:39;;;;;;;11.55;3.63;;;;;;;4.79;97.04;100510.91;4983824;28;20577;-81
2022/12/30 02:06:07;;;;;;;20.10;4.57;;;;;;;4.72;97.40;100510.59;4983316;28;20055;-80
2022/12/30 02:08:35;;;;;;;15.43;4.40;;;;;;;4.65;97.62;100520.59;4965031;29;20146;-79
2022/12/30 02:11:06;;;;;;;18.00;4.30;;;;;;;4.66;97.93;100500.69;4977014;28;20050;-80
2022/12/30 02:13:33;;;;;;;16.20;4.30;;;;;;;4.61;97.96;100510.59;4982975;28;20082;-80
2022/12/30 02:16:37;;;;;;;11.20;4.30;;;;;;;4.56;98.54;100512.72;4988401;28;20125;-80
2022/12/30 02:19:40;;;;;;;14.55;5.00;;;;;;;4.54;98.35;100507.66;4973435;28;20131;-80
2022/12/30 02:22:15;;;;;;;12.27;3.92;;;;;;;4.40;98.58;100509.69;4962805;29;20086;-80
2022/12/30 02:25:18;;;;;;;12.82;4.20;;;;;;;4.30;98.94;100507.78;4961116;28;20139;-80
2022/12/30 02:28:08;;;;;;;16.08;5.15;;;;;;;4.25;99.71;100511.72;4958838;29;20051;-80
2022/12/30 02:31:07;;;;;;;18.13;4.32;;;;;;;4.36;99.68;100503.09;4966996;28;20051;-79
2022/12/30 02:33:42;;;;;;;18.98;4.30;;;;;;;4.31;99.96;100516.38;4983319;28;20058;-78
2022/12/30 02:36:17;;;;;;;16.92;4.32;;;;;;;4.30;99.72;100512.97;4982241;28;20082;-80
2022/12/30 02:38:50;;;;;;;19.90;4.43;;;;;;;4.33;100.00;100517.91;4982067;28;20047;-81
2022/12/30 02:47:00;;;;;;;13.43;4.38;;;;;;;4.18;100.00;100511.34;4969214;28;20075;-80
2022/12/30 02:49:29;;;;;;;17.75;4.13;;;;;;;4.07;100.00;100503.56;4964311;29;20051;-79
2022/12/30 02:52:14;;;;;;;17.10;4.60;;;;;;;4.07;100.00;100498.41;4965861;29;20126;-80
2022/12/30 02:54:41;;;;;;;15.55;4.22;;;;;;;4.07;100.00;100506.16;4979525;28;20050;-80
2022/12/30 02:57:23;;;;;;;14.13;4.20;;;;;;;4.05;100.00;100505.47;4982421;28;20133;-78
2022/12/30 03:05:44;;;;;;;17.33;4.10;;;;;;;4.04;100.00;100516.75;4980524;28;20070;-80
2022/12/30 03:08:21;;;;;;;17.05;5.40;;;;;;;4.08;100.00;100527.72;4985630;28;20378;-79
2022/12/30 03:13:49;;;;;;;14.40;3.80;;;;;;;4.04;100.00;100524.53;4970274;29;20070;-82
2022/12/30 03:16:22;;;;;;;20.33;4.22;;;;;;;4.03;100.00;100522.88;4979789;28;20476;-80
2022/12/30 03:18:57;;;;;;;10.48;3.80;;;;;;;3.97;100.00;100510.41;4989575;28;20110;-81
2022/12/30 03:21:27;;;;;;;17.52;4.35;;;;;;;4.03;100.00;100507.34;4986694;28;20110;-82
2022/12/30 03:35:20;;;;;;;16.08;4.40;;;;;;;3.99;100.00;100505.91;4833208;26;20055;-83
2022/12/30 03:38:19;;;;;;;13.15;4.20;;;;;;;4.10;100.00;100498.16;4954923;29;20047;-83
2022/12/30 03:43:53;;;;;;;23.65;4.78;;;;;;;3.81;100.00;100460.72;4941285;29;20052;-80
2022/12/30 03:46:29;;;;;;;15.65;4.10;;;;;;;3.89;100.00;100466.13;4942777;29;20526;-82
2022/12/30 03:51:25;;;;;;;18.15;4.63;;;;;;;4.17;100.00;100489.00;4968178;29;20054;-78
2022/12/30 03:53:51;;;;;;;9.75;3.95;;;;;;;4.19;100.00;100489.69;4966037;29;20190;-80
2022/12/30 03:56:18;;;;;;;22.65;4.88;;;;;;;4.19;100.00;100481.94;4966668;29;20079;-80
2022/12/30 03:58:44;;;;;;;18.92;4.75;;;;;;;4.11;100.00;100473.91;4964052;29;20121;-80
2022/12/30 04:01:11;;;;;;;15.13;4.68;;;;;;;4.08;100.00;100481.91;4962906;29;20083;-80
2022/12/30 04:03:38;;;;;;;15.57;5.45;;;;;;;4.17;100.00;100482.97;4961399;29;20513;-78
2022/12/30 04:06:04;;;;;;;13.05;4.15;;;;;;;4.13;100.00;100482.41;4959635;29;20061;-79
2022/12/30 04:08:32;;;;;;;10.55;4.20;;;;;;;4.11;100.00;100470.50;4961209;29;20086;-79
2022/12/30 04:10:59;;;;;;;15.48;4.43;;;;;;;4.15;100.00;100477.09;4961963;29;20216;-79
2022/12/30 04:13:26;;;;;;;13.18;4.28;;;;;;;4.13;100.00;100469.44;4961396;28;20553;-79
2022/12/30 04:15:53;;;;;;;14.07;4.07;;;;;;;4.19;100.00;100462.97;4959595;29;20480;-78
2022/12/30 04:18:19;;;;;;;17.65;4.63;;;;;;;4.18;100.00;100463.91;4960827;29;20454;-78
2022/12/30 04:20:47;;;;;;;14.38;4.90;;;;;;;4.16;100.00;100466.63;4960842;29;20467;-78
2022/12/30 04:23:13;;;;;;;15.63;4.70;;;;;;;4.20;100.00;100456.84;4958958;29;20149;-78
2022/12/30 04:25:41;;;;;;;18.80;4.82;;;;;;;4.14;100.00;100458.16;4960491;29;20486;-79
2022/12/30 04:28:08;;;;;;;24.10;5.20;;;;;;;4.06;100.00;100464.84;4961429;29;20142;-79
2022/12/30 04:30:35;;;;;;;13.18;4.40;;;;;;;4.08;100.00;100466.38;4961159;29;20069;-79
2022/12/30 04:33:02;;;;;;;10.15;5.07;;;;;;;4.02;100.00;100459.09;4961269;29;20196;-78
2022/12/30 04:35:29;;;;;;;10.80;4.13;;;;;;;3.87;100.00;100458.50;4960902;29;20142;-78
2022/12/30 04:37:55;;;;;;;13.27;4.68;;;;;;;3.91;100.00;100462.50;4960666;29;20426;-78
2022/12/30 04:40:22;;;;;;;16.40;4.57;;;;;;;3.81;100.00;100477.06;4959836;29;20051;-78
2022/12/30 04:42:50;;;;;;;19.08;4.88;;;;;;;3.85;100.00;100470.72;4957171;29;20142;-78
2022/12/30 04:45:17;;;;;;;14.75;4.45;;;;;;;3.92;100.00;100468.50;4960275;29;20079;-78
2022/12/30 04:47:43;;;;;;;13.00;4.35;;;;;;;3.88;100.00;100483.44;4961040;29;20083;-79
2022/12/30 04:50:10;;;;;;;18.23;4.82;;;;;;;3.91;100.00;100483.19;4959852;29;20271;-79
2022/12/30 04:52:37;;;;;;;19.42;5.20;;;;;;;3.95;100.00;100478.63;4959527;29;20051;-78
2022/12/30 04:55:04;;;;;;;15.32;4.65;;;;;;;4.06;100.00;100486.41;4958534;29;20052;-79
2022/12/30 04:57:30;;;;;;;20.92;4.82;;;;;;;4.05;100.00;100476.16;4959965;28;20082;-78
2022/12/30 04:59:58;;;;;;;17.30;4.60;;;;;;;3.99;100.00;100475.69;4959105;29;20135;-78
2022/12/30 05:02:25;;;;;;;18.08;5.75;;;;;;;3.96;100.00;100485.44;4961137;29;20097;-78
2022/12/30 05:04:51;;;;;;;17.73;5.07;;;;;;;3.91;100.00;100497.91;4961308;29;20406;-78
2022/12/30 05:07:18;;;;;;;13.23;4.85;;;;;;;3.89;100.00;100495.44;4960567;29;20146;-78
2022/12/30 05:09:44;;;;;;;18.63;5.03;;;;;;;3.85;100.00;100511.31;4959585;29;20051;-78
2022/12/30 05:12:11;;;;;;;18.33;4.65;;;;;;;3.76;100.00;100506.84;4961227;29;20043;-78
2022/12/30 05:14:38;;;;;;;18.60;4.90;;;;;;;3.69;100.00;100501.31;4957869;29;20055;-79
2022/12/30 05:17:06;;;;;;;14.02;5.05;;;;;;;3.64;100.00;100506.81;4955608;28;20398;-78
2022/12/30 05:19:32;;;;;;;12.90;4.05;;;;;;;3.54;100.00;100507.63;4954944;29;20061;-77
2022/12/30 05:21:59;;;;;;;18.10;4.43;;;;;;;3.58;100.00;100498.69;4954882;29;20051;-78
2022/12/30 05:27:09;;;;;;;19.90;4.85;;;;;;;3.53;100.00;100499.03;4956626;29;20070;-77
2022/12/30 05:29:36;;;;;;;19.00;5.18;;;;;;;3.54;100.00;100505.03;4957886;29;20423;-79
2022/12/30 05:32:03;;;;;;;14.07;4.85;;;;;;;3.54;100.00;100505.88;4958536;29;20111;-78
2022/12/30 05:34:31;;;;;;;17.42;4.93;;;;;;;3.53;100.00;100496.44;4958527;29;20106;-80
2022/12/30 05:36:57;;;;;;;13.55;4.25;;;;;;;3.51;100.00;100508.69;4959599;29;20073;-79
2022/12/30 05:39:24;;;;;;;24.67;5.28;;;;;;;3.50;100.00;100501.03;4957967;29;20111;-79
2022/12/30 05:41:51;;;;;;;18.30;5.15;;;;;;;3.49;100.00;100502.78;4959217;29;20110;-78
2022/12/30 05:44:17;;;;;;;14.57;4.95;;;;;;;3.53;100.00;100498.22;4958903;29;20138;-78
2022/12/30 05:46:44;;;;;;;13.77;3.97;;;;;;;3.56;100.00;100501.41;4958075;29;20118;-79
2022/12/30 05:49:10;;;;;;;15.90;4.82;;;;;;;3.53;100.00;100498.22;4957660;28;20061;-78
2022/12/30 05:51:38;;;;;;;17.95;5.00;;;;;;;3.58;100.00;100496.09;4959413;29;20623;-79
2022/12/30 05:54:05;;;;;;;18.15;5.03;;;;;;;3.53;100.00;100496.44;4959503;29;20133;-79
2022/12/30 05:56:32;;;;;;;14.52;4.75;;;;;;;3.46;100.00;100492.66;4960752;29;20520;-79
2022/12/30 05:58:58;;;;;;;12.82;4.70;;;;;;;3.45;100.00;100485.84;4958489;28;20063;-78
2022/12/30 06:01:25;;;;;;;17.73;5.65;;;;;;;3.44;100.00;100479.03;4960597;29;20110;-78
2022/12/30 06:03:54;;;;;;;15.40;4.70;;;;;;;3.46;100.00;100482.31;4960898;29;20059;-80
2022/12/30 06:06:21;;;;;;;13.75;4.22;;;;;;;3.48;100.00;100475.28;4959363;29;20124;-79
2022/12/30 06:08:49;;;;;;;19.85;5.55;;;;;;;3.46;100.00;100465.97;4959216;28;20044;-79
2022/12/30 06:11:16;;;;;;;17.55;5.10;;;;;;;3.47;100.00;100462.44;4959626;29;20062;-78
2022/12/30 06:13:42;;;;;;;14.77;4.32;;;;;;;3.50;100.00;100473.41;4957458;29;20134;-80
2022/12/30 06:16:09;;;;;;;24.52;7.22;;;;;;;3.51;100.00;100459.53;4956064;29;20110;-79
2022/12/30 06:18:36;;;;;;;13.35;4.85;;;;;;;3.48;100.00;100454.56;4958960;28;20235;-79
2022/12/30 06:21:02;;;;;;;19.65;5.00;;;;;;;3.49;100.00;100456.22;4961767;29;20145;-79
2022/12/30 06:23:29;;;;;;;17.08;4.57;;;;;;;3.49;100.00;100448.47;4961328;29;20146;-79
2022/12/30 06:25:59;;;;;;;20.13;4.20;;;;;;;3.60;100.00;100448.47;4963213;29;20089;-80
2022/12/30 06:28:26;;;;;;;20.20;4.70;;;;;;;3.63;100.00;100442.25;4964312;28;20058;-80
2022/12/30 06:30:53;;;;;;;17.38;4.70;;;;;;;3.66;100.00;100448.03;4966840;29;20058;-80
2022/12/30 06:33:21;;;;;;;18.70;4.53;;;;;;;3.74;100.00;100442.28;4963131;29;20071;-81
2022/12/30 06:35:48;;;;;;;15.20;4.40;;;;;;;3.77;100.00;100451.56;4963466;29;20130;-81
2022/12/30 06:38:15;;;;;;;12.65;4.15;;;;;;;3.68;100.00;100445.31;4964075;28;20110;-79
2022/12/30 06:40:44;;;;;;;19.17;4.82;;;;;;;3.59;100.00;100444.25;4961565;29;20134;-79
2022/12/30 06:43:12;;;;;;;11.65;3.95;;;;;;;3.54;100.00;100441.19;4962084;29;20040;-78
2022/12/30 06:45:39;;;;;;;20.50;5.57;;;;;;;3.67;100.00;100447.09;4963651;29;20450;-78
2022/12/30 06:48:06;;;;;;;12.02;4.30;;;;;;;3.67;100.00;100438.50;4966209;29;20050;-79
2022/12/30 06:50:33;;;;;;;15.20;4.47;;;;;;;3.80;100.00;100434.00;4965090;29;20051;-79
2022/12/30 06:52:59;;;;;;;17.33;4.68;;;;;;;3.86;100.00;100436.13;4964631;29;20106;-79
2022/12/30 06:55:26;;;;;;;12.70;4.35;;;;;;;3.90;100.00;100428.97;4965565;29;20062;-81
2022/12/30 06:57:53;;;;;;;11.40;4.68;;;;;;;3.95;100.00;100432.03;4964669;29;20573;-82
2022/12/30 07:00:21;;;;;;;20.42;5.10;;;;;;;4.01;100.00;100426.38;4964318;29;20059;-80
2022/12/30 07:02:48;;;;;;;17.27;4.30;;;;;;;4.01;100.00;100403.06;4960095;29;20530;-80
2022/12/30 07:05:15;;;;;;;13.60;4.53;;;;;;;4.01;100.00;100395.31;4959925;29;20047;-79
2022/12/30 07:07:42;;;;;;;10.27;3.88;;;;;;;4.16;100.00;100401.88;4960102;28;20090;-80
2022/12/30 07:10:08;;;;;;;14.57;4.50;;;;;;;4.18;100.00;100392.22;4959959;29;20079;-80
2022/12/30 07:12:35;;;;;;;13.38;3.92;;;;;;;4.26;100.00;100387.25;4960418;29;20094;-80
2022/12/30 07:15:02;;;;;;;15.75;4.97;;;;;;;4.13;100.00;100386.59;4960235;29;20081;-81
2022/12/30 07:17:30;;;;;;;13.10;3.85;;;;;;;4.25;100.00;100402.94;4961071;28;20047;-79
2022/12/30 07:19:56;;;;;;;10.60;4.30;;;;;;;4.18;100.00;100400.00;4960672;29;20050;-81
2022/12/30 07:22:23;;;;;;;11.55;3.92;;;;;;;4.24;100.00;100403.88;4959962;29;20573;-80
2022/12/30 07:24:50;;;;;;;13.13;4.90;;;;;;;4.38;100.00;100403.59;4960793;29;20075;-79
2022/12/30 07:27:16;;;;;;;15.07;5.93;;;;;;;4.34;100.00;100403.00;4960626;29;20087;-81
2022/12/30 07:29:43;;;;;;;13.98;4.20;;;;;;;4.39;100.00;100399.22;4962371;29;20058;-81
2022/12/30 07:32:10;;;;;;;13.75;4.10;;;;;;;4.48;100.00;100398.50;4960951;29;20425;-80
2022/12/30 07:34:38;;;;;;;16.13;5.88;;;;;;;4.44;100.00;100394.50;4960095;29;20431;-79
2022/12/30 07:37:06;;;;;;;19.05;6.13;;;;;;;4.43;100.00;100392.84;4960926;28;20106;-81
2022/12/30 07:39:33;;;;;;;10.55;4.20;;;;;;;4.53;100.00;100373.88;4960405;29;20092;-80
2022/12/30 07:41:59;;;;;;;10.65;4.40;;;;;;;4.45;100.00;100367.66;4960829;29;20055;-80
2022/12/30 07:44:26;;;;;;;9.18;3.85;;;;;;;4.47;100.00;100366.56;4961297;29;20110;-79
2022/12/30 07:46:53;;;;;;;13.48;4.95;;;;;;;4.52;100.00;100368.81;4956461;29;20127;-80
2022/12/30 07:49:20;;;;;;;10.55;4.10;;;;;;;4.55;100.00;100361.59;4961196;28;20119;-78
2022/12/30 07:51:48;;;;;;;10.68;3.92;;;;;;;4.68;100.00;100369.22;4965020;29;20133;-79
2022/12/30 07:54:16;;;;;;;12.77;4.63;;;;;;;4.67;100.00;100367.56;4965094;29;20451;-80
2022/12/30 07:56:46;;;;;;;13.73;4.47;;;;;;;4.76;100.00;100360.78;4962774;29;20063;-79
2022/12/30 07:59:14;;;;;;;9.27;3.90;;;;;;;4.83;100.00;100367.13;4965793;28;20085;-80
2022/12/30 08:01:41;;;;;;;14.45;4.25;;;;;;;4.93;100.00;100357.66;4966888;29;20147;-80
2022/12/30 08:04:09;;;;;;;11.75;3.40;;;;;;;5.00;100.00;100364.81;4966108;29;20054;-80
2022/12/30 08:06:36;;;;;;;9.93;4.13;;;;;;;4.94;100.00;100352.34;4965359;29;20499;-80
2022/12/30 08:09:05;;;;;;;12.57;3.78;;;;;;;5.16;100.00;100350.56;4964426;28;20051;-79
2022/12/30 08:11:31;;;;;;;13.48;3.80;;;;;;;5.14;100.00;100347.28;4968418;29;20050;-79
2022/12/30 08:13:59;;;;;;;12.77;3.63;;;;;;;5.17;100.00;100347.03;4970355;29;20078;-79
2022/12/30 08:16:26;;;;;;;10.48;4.18;;;;;;;5.28;100.00;100345.16;4958732;29;20225;-80
2022/12/30 08:18:52;;;;;;;9.23;3.78;;;;;;;5.27;100.00;100340.09;4958524;29;20102;-80
2022/12/30 08:21:19;;;;;;;10.85;4.13;;;;;;;5.27;100.00;100334.91;4963146;29;20451;-81
2022/12/30 08:23:46;;;;;;;9.98;4.05;;;;;;;5.21;100.00;100335.41;4964236;29;20074;-80
2022/12/30 08:26:16;;;;;;;9.05;4.03;;;;;;;5.24;100.00;100338.56;4964150;29;20058;-81
2022/12/30 08:28:43;;;;;;;10.93;4.07;;;;;;;5.26;100.00;100323.69;4963863;29;20115;-81
2022/12/30 08:31:13;;;;;;;16.10;4.18;;;;;;;5.30;100.00;100316.50;4963205;29;20087;-79
2022/12/30 08:33:40;;;;;;;11.30;3.72;;;;;;;5.53;100.00;100311.94;4962064;29;20050;-81
2022/12/30 08:36:10;;;;;;;12.82;3.80;;;;;;;5.83;100.00;100296.31;4963706;29;20070;-78
2022/12/30 08:38:37;;;;;;;12.35;3.80;;;;;;;6.16;100.00;100297.75;4967041;28;20075;-78
2022/12/30 08:41:06;;;;;;;11.32;6.13;;;;;;;6.40;99.21;100288.72;4966188;29;20118;-80
2022/12/30 08:43:34;;;;;;;8.85;3.42;;;;;;;6.57;98.41;100295.84;4967729;29;20071;-80
2022/12/30 08:46:03;;;;;;;7.75;3.05;;;;;;;6.66;97.29;100290.59;4967405;29;20478;-81
2022/12/30 08:48:30;;;;;;;9.30;3.50;;;;;;;6.80;96.35;100285.94;4966065;28;20039;-81
2022/12/30 08:50:57;;;;;;;9.88;3.70;;;;;;;6.84;95.83;100275.13;4966223;29;20574;-78
2022/12/30 08:53:24;;;;;;;12.73;3.67;;;;;;;7.00;94.85;100287.53;4962891;28;20043;-81
2022/12/30 08:55:59;;;;;;;10.80;3.67;;;;;;;6.96;94.64;100278.38;4966718;29;20058;-82
2022/12/30 08:58:25;;;;;;;13.20;4.13;;;;;;;6.97;94.51;100280.84;4962953;29;20079;-81
2022/12/30 09:00:53;;;;;;;12.48;3.50;;;;;;;6.97;94.40;100278.25;4966834;28;20071;-81
2022/12/30 09:03:20;;;;;;;5.65;2.92;;;;;;;7.03;94.16;100281.25;4965513;29;20190;-82
2022/12/30 09:05:51;;;;;;;9.68;3.38;;;;;;;7.07;93.77;100280.00;4966789;29;20079;-80
2022/12/30 09:08:18;;;;;;;7.53;2.97;;;;;;;7.16;93.48;100279.94;4965483;28;20043;-81
2022/12/30 09:10:55;;;;;;;9.27;3.15;;;;;;;7.21;93.25;100263.91;4967497;29;20067;-80
2022/12/30 09:13:22;;;;;;;12.70;3.17;;;;;;;7.31;92.86;100265.50;4964016;29;20075;-81
2022/12/30 09:15:49;;;;;;;8.77;3.55;;;;;;;7.39;92.48;100258.78;4968440;29;20075;-82
2022/12/30 09:18:17;;;;;;;12.20;3.40;;;;;;;7.43;92.16;100253.13;4966352;29;20057;-80
2022/12/30 09:20:47;;;;;;;8.32;2.83;;;;;;;7.38;92.06;100252.75;4966635;29;20051;-82
2022/12/30 09:23:22;;;;;;;6.90;3.13;;;;;;;7.30;92.28;100231.81;4963559;29;20047;-81
2022/12/30 09:25:49;;;;;;;8.95;3.63;;;;;;;7.46;91.97;100226.81;4965544;29;20506;-81
2022/12/30 09:28:31;;;;;;;11.73;4.72;;;;;;;7.55;91.90;100249.38;4965566;28;20494;-81
2022/12/30 09:31:00;;;;;;;10.77;3.33;;;;;;;7.53;92.02;100214.03;4967603;29;20074;-79
2022/12/30 09:33:28;;;;;;;13.38;4.47;;;;;;;7.65;91.83;100229.28;4965475;29;20051;-80
2022/12/30 09:35:55;;;;;;;11.07;3.05;;;;;;;7.72;91.85;100231.28;4961489;29;20134;-82
2022/12/30 09:38:21;;;;;;;5.70;2.75;;;;;;;7.76;91.87;100223.03;4964973;29;20078;-81
2022/12/30 09:40:55;;;;;;;8.15;3.20;;;;;;;7.76;92.13;100206.59;4962998;29;20083;-81
2022/12/30 09:43:30;;;;;;;9.60;3.28;;;;;;;7.72;92.17;100194.84;4961873;29;20071;-81
2022/12/30 09:46:30;;;;;;;9.55;3.35;;;;;;;7.73;92.45;100206.88;4964360;28;20066;-80
2022/12/30 09:49:02;;;;;;;11.40;3.60;;;;;;;7.76;92.45;100196.19;4970461;28;20142;-82
2022/12/30 09:51:33;;;;;;;9.40;3.65;;;;;;;7.73;92.71;100186.06;4961943;28;20051;-82
2022/12/30 09:54:13;;;;;;;14.18;3.80;;;;;;;7.64;92.83;100164.31;4985068;23;20357;-80
2022/12/30 09:56:43;;;;;;;11.35;3.97;;;;;;;7.65;92.77;100168.56;4971048;28;20060;-79
2022/12/30 09:59:16;;;;;;;7.90;3.17;;;;;;;7.80;92.57;100187.91;4992129;28;20046;-79
2022/12/30 10:01:45;;;;;;;13.60;4.22;;;;;;;7.81;92.08;100170.50;4979660;28;20133;-79
2022/12/30 10:04:16;;;;;;;8.43;3.50;;;;;;;7.85;92.15;100164.03;4967372;28;20052;-81
2022/12/30 10:06:54;;;;;;;8.57;3.42;;;;;;;7.82;92.08;100161.72;4946795;29;20079;-79
2022/12/30 10:09:46;;;;;;;12.65;3.75;;;;;;;7.83;92.54;100160.75;4955149;29;20044;-78
2022/12/30 10:12:27;;;;;;;10.70;3.38;;;;;;;7.94;92.20;100166.56;4951350;28;20048;-80
2022/12/30 10:15:09;;;;;;;12.77;4.72;;;;;;;7.89;92.26;100152.34;4951958;28;20073;-79
2022/12/30 10:18:00;;;;;;;8.40;3.70;;;;;;;7.88;91.90;100148.09;4967735;28;20070;-79
2022/12/30 10:20:46;;;;;;;9.93;3.35;;;;;;;7.97;91.84;100145.41;4976613;28;20093;-80
2022/12/30 10:23:22;;;;;;;5.93;2.65;;;;;;;8.03;91.73;100158.81;4962279;29;20489;-79
2022/12/30 10:25:55;;;;;;;7.40;3.05;;;;;;;8.03;91.51;100162.25;4961335;28;20086;-79
2022/12/30 10:28:30;;;;;;;8.98;2.92;;;;;;;8.02;91.30;100147.56;4959985;29;20130;-79
2022/12/30 10:30:56;;;;;;;10.13;3.60;;;;;;;8.02;91.18;100144.97;4962888;29;20065;-79
2022/12/30 10:33:24;;;;;;;11.88;3.63;;;;;;;8.10;90.74;100133.75;4957926;29;20090;-79
2022/12/30 10:36:03;;;;;;;12.52;3.63;;;;;;;8.05;90.83;100136.00;4956081;28;20089;-80
2022/12/30 10:38:31;;;;;;;9.50;2.90;;;;;;;8.06;90.52;100125.44;4965155;29;20110;-80
2022/12/30 10:41:07;;;;;;;11.02;3.45;;;;;;;8.07;90.27;100119.25;4964351;29;20078;-81
2022/12/30 10:43:47;;;;;;;11.80;3.10;;;;;;;8.07;90.39;100114.03;4962365;28;20051;-79
2022/12/30 10:46:33;;;;;;;5.97;2.90;;;;;;;8.11;89.90;100094.53;4961668;29;20071;-78
2022/12/30 10:49:15;;;;;;;6.95;3.30;;;;;;;8.19;89.65;100083.34;4962432;29;20498;-80
2022/12/30 10:51:43;;;;;;;8.10;3.00;;;;;;;8.21;88.85;100100.47;4962344;29;20107;-79
2022/12/30 10:54:10;;;;;;;7.03;3.03;;;;;;;8.18;89.37;100079.09;4962020;29;20054;-80
2022/12/30 10:56:39;;;;;;;11.70;3.42;;;;;;;8.14;89.60;100073.38;4961860;29;20110;-79
2022/12/30 10:59:11;;;;;;;9.35;3.80;;;;;;;8.16;89.72;100068.00;4962439;29;20127;-80
2022/12/30 11:01:39;;;;;;;9.00;3.20;;;;;;;8.09;89.63;100065.19;4961199;29;20066;-80
2022/12/30 11:04:06;;;;;;;7.05;2.97;;;;;;;8.18;89.62;100064.28;4961428;29;20059;-79
2022/12/30 11:06:34;;;;;;;10.98;3.55;;;;;;;8.19;89.60;100046.84;4962299;29;20055;-79
2022/12/30 11:09:23;;;;;;;6.72;2.80;;;;;;;8.17;89.75;100038.38;4964608;29;20143;-79
2022/12/30 11:14:45;;;;;;;6.05;2.88;;;;;;;8.13;90.03;100032.66;4963665;29;20167;-79
2022/12/30 11:17:21;;;;;;;7.93;3.17;;;;;;;8.10;89.99;100035.56;4961839;28;20051;-79
2022/12/30 11:19:53;;;;;;;6.90;2.72;;;;;;;8.12;89.80;100010.16;4967308;29;20062;-79
2022/12/30 11:22:21;;;;;;;9.93;3.15;;;;;;;8.07;89.50;99999.38;4967133;29;20051;-80
2022/12/30 11:24:58;;;;;;;6.85;2.88;;;;;;;8.06;89.80;99989.94;4968603;28;20086;-79
2022/12/30 11:27:38;;;;;;;9.20;3.13;;;;;;;8.11;89.40;99986.88;4966217;29;20048;-80
2022/12/30 11:30:06;;;;;;;7.80;3.30;;;;;;;8.20;89.12;99997.19;4966311;29;20114;-80
2022/12/30 11:32:34;;;;;;;8.25;3.08;;;;;;;8.17;89.27;100001.88;4963862;29;20559;-79
2022/12/30 11:35:01;;;;;;;9.20;3.33;;;;;;;8.15;89.05;99988.19;4965055;28;20085;-79
2022/12/30 11:37:34;;;;;;;9.15;3.20;;;;;;;8.22;88.81;99984.00;4963713;29;20086;-79
2022/12/30 11:40:26;;;;;;;6.93;3.08;;;;;;;8.21;88.58;99987.56;4963226;29;20055;-79
2022/12/30 11:43:09;;;;;;;7.35;2.80;;;;;;;8.24;88.24;99977.66;4962137;29;20102;-78
2022/12/30 11:45:40;;;;;;;6.97;3.10;;;;;;;8.22;88.55;99968.34;4964259;29;20089;-79
2022/12/30 11:48:19;;;;;;;9.63;4.07;;;;;;;8.20;88.44;99965.91;4959904;29;20082;-78
2022/12/30 11:50:52;;;;;;;5.97;3.20;;;;;;;8.22;88.18;99953.53;4960793;29;20134;-78
2022/12/30 11:53:22;;;;;;;5.78;3.17;;;;;;;8.28;87.82;99947.69;4963307;29;20082;-78
2022/12/30 11:55:53;;;;;;;8.55;3.78;;;;;;;8.30;87.28;99937.94;4958687;28;20138;-79
2022/12/30 11:58:20;;;;;;;7.78;3.30;;;;;;;8.31;87.35;99926.53;4964000;29;20541;-80
2022/12/30 12:00:57;;;;;;;7.78;3.40;;;;;;;8.30;86.98;99919.69;4963941;29;20051;-80
2022/12/30 12:03:27;;;;;;;8.25;3.40;;;;;;;8.25;87.44;99895.06;4963309;29;20043;-80
2022/12/30 12:06:05;;;;;;;6.97;3.40;;;;;;;8.29;87.09;99894.59;4964245;28;20134;-80
2022/12/30 12:08:35;;;;;;;7.00;3.20;;;;;;;8.33;86.93;99861.25;4963900;29;20059;-80
2022/12/30 12:11:07;;;;;;;11.70;3.65;;;;;;;8.29;86.92;99852.88;4962909;29;20059;-80
2022/12/30 12:13:41;;;;;;;8.15;3.58;;;;;;;8.36;86.73;99865.31;4966887;29;20075;-79
2022/12/30 12:16:15;;;;;;;7.47;3.00;;;;;;;8.39;86.79;99859.78;4968929;29;20516;-80
2022/12/30 12:18:44;;;;;;;8.25;3.30;;;;;;;8.39;86.33;99844.13;4968404;29;20065;-80
2022/12/30 12:21:21;;;;;;;6.65;3.42;;;;;;;8.46;86.26;99856.38;4966256;29;20074;-80
2022/12/30 12:24:02;;;;;;;7.57;3.53;;;;;;;8.42;86.51;99833.38;4966094;28;20077;-80
2022/12/30 12:26:34;;;;;;;7.05;3.42;;;;;;;8.46;85.90;99822.47;4962870;29;20116;-80
2022/12/30 12:29:01;;;;;;;4.82;3.03;;;;;;;8.50;86.20;99833.41;4967664;29;20048;-80
2022/12/30 12:31:42;;;;;;;5.10;3.00;;;;;;;8.47;86.60;99837.16;4967432;29;20086;-81
2022/12/30 12:34:21;;;;;;;8.25;3.45;;;;;;;8.44;86.69;99824.44;4966233;28;20475;-81
2022/12/30 12:37:01;;;;;;;12.32;3.60;;;;;;;8.44;86.56;99813.19;4963689;29;20075;-83
2022/12/30 12:39:46;;;;;;;8.07;4.28;;;;;;;8.46;86.59;99806.84;4941128;29;20059;-79
2022/12/30 12:42:21;;;;;;;7.53;3.70;;;;;;;8.50;86.44;99794.28;4943074;29;20089;-79
2022/12/30 12:45:17;;;;;;;9.07;3.40;;;;;;;8.48;86.48;99780.59;4943201;29;20135;-81
2022/12/30 12:47:59;;;;;;;6.47;3.30;;;;;;;8.48;86.68;99762.34;4940703;29;20139;-80